createdAt,value
2018-05-07T00:00:14.107Z,0.00
2018-05-07T00:01:14.075Z,0.00
2018-05-07T00:02:13.917Z,0.00
2018-05-07T00:03:13.843Z,0.00
2018-05-07T00:04:13.756Z,0.00
2018-05-07T00:05:13.684Z,0.00
2018-05-07T00:06:13.762Z,0.00
2018-05-07T00:07:13.520Z,0.00
2018-05-07T00:08:13.468Z,0.00
2018-05-07T00:09:13.379Z,0.00
2018-05-07T00:10:13.339Z,0.00
2018-05-07T00:11:13.206Z,0.00
2018-05-07T00:12:13.132Z,0.00
2018-05-07T00:13:13.076Z,0.00
2018-05-07T00:14:12.968Z,0.00
2018-05-07T00:15:12.882Z,0.00
2018-05-07T00:16:12.807Z,0.00
2018-05-07T00:17:12.734Z,0.00
2018-05-07T00:18:12.647Z,0.00
2018-05-07T00:19:12.572Z,0.00
2018-05-07T00:20:12.496Z,0.00
2018-05-07T00:21:12.407Z,0.00
2018-05-07T00:22:12.336Z,0.00
2018-05-07T00:23:12.264Z,0.00
2018-05-07T00:24:12.169Z,0.00
2018-05-07T00:25:12.097Z,0.00
2018-05-07T00:26:12.025Z,0.00
2018-05-07T00:27:11.936Z,0.00
2018-05-07T00:28:11.860Z,0.00
2018-05-07T00:29:11.773Z,0.00
2018-05-07T00:30:11.700Z,0.00
2018-05-07T00:31:11.625Z,0.00
2018-05-07T00:32:11.536Z,0.00
2018-05-07T00:33:11.515Z,0.00
2018-05-07T00:34:11.385Z,0.00
2018-05-07T00:35:11.296Z,0.00
2018-05-07T00:36:11.222Z,0.00
2018-05-07T00:37:11.152Z,0.00
2018-05-07T00:38:11.061Z,0.00
2018-05-07T00:39:10.987Z,0.00
2018-05-07T00:40:10.899Z,0.00
2018-05-07T00:41:10.835Z,0.00
2018-05-07T00:42:10.747Z,0.00
2018-05-07T00:43:10.660Z,0.00
2018-05-07T00:44:10.585Z,0.00
2018-05-07T00:45:10.512Z,0.00
2018-05-07T00:46:10.437Z,0.00
2018-05-07T00:47:10.350Z,0.00
2018-05-07T00:48:10.262Z,0.00
2018-05-07T00:49:10.186Z,0.00
2018-05-07T00:50:10.111Z,0.00
2018-05-07T00:51:10.036Z,0.00
2018-05-07T00:52:09.948Z,0.00
2018-05-07T00:53:09.876Z,0.00
2018-05-07T00:54:09.788Z,0.00
2018-05-07T00:55:09.714Z,0.00
2018-05-07T00:56:09.639Z,0.00
2018-05-07T00:57:09.549Z,0.00
2018-05-07T00:58:09.474Z,0.00
2018-05-07T00:59:09.387Z,0.00
2018-05-07T01:00:09.312Z,0.00
2018-05-07T01:01:09.239Z,0.00
2018-05-07T01:02:09.149Z,0.00
2018-05-07T01:03:09.074Z,0.00
2018-05-07T01:04:09.001Z,0.00
2018-05-07T01:05:08.914Z,0.00
2018-05-07T01:06:08.840Z,0.00
2018-05-07T01:07:08.751Z,0.00
2018-05-07T01:08:08.677Z,0.00
2018-05-07T01:09:08.588Z,0.00
2018-05-07T01:10:08.513Z,0.00
2018-05-07T01:11:08.438Z,0.00
2018-05-07T01:12:08.351Z,0.00
2018-05-07T01:13:08.290Z,0.00
2018-05-07T01:14:08.202Z,0.00
2018-05-07T01:15:08.122Z,0.00
2018-05-07T01:16:08.046Z,0.00
2018-05-07T01:17:07.953Z,0.00
2018-05-07T01:18:07.877Z,0.00
2018-05-07T01:19:07.803Z,0.00
2018-05-07T01:20:07.716Z,0.00
2018-05-07T01:21:07.639Z,0.00
2018-05-07T01:22:07.555Z,0.00
2018-05-07T01:23:07.477Z,0.00
2018-05-07T01:24:07.401Z,0.00
2018-05-07T01:25:07.317Z,0.00
2018-05-07T01:26:07.242Z,0.00
2018-05-07T01:27:07.154Z,0.00
2018-05-07T01:28:07.079Z,0.00
2018-05-07T01:29:07.002Z,0.00
2018-05-07T01:30:06.916Z,0.00
2018-05-07T01:31:06.840Z,0.00
2018-05-07T01:32:06.753Z,0.00
2018-05-07T01:33:06.677Z,0.00
2018-05-07T01:34:06.607Z,0.00
2018-05-07T01:35:06.516Z,0.00
2018-05-07T01:36:06.441Z,0.00
2018-05-07T01:37:06.386Z,0.00
2018-05-07T01:38:06.280Z,0.00
2018-05-07T01:39:06.205Z,0.00
2018-05-07T01:40:06.119Z,0.00
2018-05-07T01:41:06.042Z,0.00
2018-05-07T01:42:05.970Z,0.00
2018-05-07T01:43:05.878Z,0.00
2018-05-07T01:44:05.803Z,0.00
2018-05-07T01:45:05.720Z,0.00
2018-05-07T01:46:05.645Z,0.00
2018-05-07T01:47:05.565Z,0.00
2018-05-07T01:48:05.481Z,0.00
2018-05-07T01:49:05.407Z,0.00
2018-05-07T01:50:05.319Z,0.00
2018-05-07T01:51:05.245Z,0.00
2018-05-07T01:52:05.158Z,0.00
2018-05-07T01:53:05.080Z,0.00
2018-05-07T01:54:05.006Z,0.00
2018-05-07T01:55:04.918Z,0.00
2018-05-07T01:56:04.844Z,0.00
2018-05-07T01:57:04.759Z,0.00
2018-05-07T01:58:04.683Z,0.00
2018-05-07T01:59:04.623Z,0.00
2018-05-07T02:00:04.521Z,0.00
2018-05-07T02:01:04.445Z,0.00
2018-05-07T02:02:04.357Z,0.00
2018-05-07T02:03:04.281Z,0.00
2018-05-07T02:04:04.206Z,0.00
2018-05-07T02:05:04.120Z,0.00
2018-05-07T02:06:04.044Z,0.00
2018-05-07T02:07:03.957Z,0.00
2018-05-07T02:08:03.881Z,0.00
2018-05-07T02:09:03.809Z,0.00
2018-05-07T02:10:03.723Z,0.00
2018-05-07T02:11:03.651Z,0.00
2018-05-07T02:12:03.559Z,0.00
2018-05-07T02:13:03.495Z,0.00
2018-05-07T02:14:03.407Z,0.00
2018-05-07T02:15:03.324Z,0.00
2018-05-07T02:16:03.247Z,0.00
2018-05-07T02:17:03.159Z,0.00
2018-05-07T02:18:03.086Z,0.00
2018-05-07T02:19:02.998Z,0.00
2018-05-07T02:20:02.923Z,0.00
2018-05-07T02:21:02.849Z,0.00
2018-05-07T02:22:02.760Z,0.00
2018-05-07T02:23:02.685Z,0.00
2018-05-07T02:24:02.598Z,0.00
2018-05-07T02:25:02.522Z,0.00
2018-05-07T02:26:02.447Z,0.00
2018-05-07T02:27:02.359Z,0.00
2018-05-07T02:28:02.283Z,0.00
2018-05-07T02:29:02.199Z,0.00
2018-05-07T02:30:02.125Z,0.00
2018-05-07T02:31:02.039Z,0.00
2018-05-07T02:32:01.967Z,0.00
2018-05-07T02:33:01.885Z,0.00
2018-05-07T02:34:01.798Z,0.00
2018-05-07T02:35:01.723Z,0.00
2018-05-07T02:36:01.634Z,0.00
2018-05-07T02:37:01.560Z,0.00
2018-05-07T02:38:01.473Z,0.00
2018-05-07T02:39:01.449Z,0.00
2018-05-07T02:40:01.323Z,0.00
2018-05-07T02:41:01.237Z,0.00
2018-05-07T02:42:01.162Z,0.00
2018-05-07T02:43:01.088Z,0.00
2018-05-07T02:44:01.002Z,0.00
2018-05-07T02:45:00.926Z,0.00
2018-05-07T02:46:00.836Z,0.00
2018-05-07T02:47:00.760Z,0.00
2018-05-07T02:48:00.685Z,0.00
2018-05-07T02:49:00.600Z,0.00
2018-05-07T02:50:00.514Z,0.00
2018-05-07T02:51:00.437Z,0.00
2018-05-07T02:52:00.351Z,0.00
2018-05-07T02:53:00.279Z,0.00
2018-05-07T02:54:00.188Z,0.00
2018-05-07T02:55:00.111Z,0.00
2018-05-07T02:56:00.037Z,0.00
2018-05-07T02:56:59.952Z,0.00
2018-05-07T02:57:59.877Z,0.00
2018-05-07T02:58:59.802Z,0.00
2018-05-07T02:59:59.714Z,0.00
2018-05-07T03:00:59.626Z,0.00
2018-05-07T03:01:59.550Z,0.00
2018-05-07T03:02:59.464Z,0.00
2018-05-07T03:03:59.387Z,0.00
2018-05-07T03:04:59.315Z,0.00
2018-05-07T03:05:59.228Z,0.00
2018-05-07T03:06:59.153Z,0.00
2018-05-07T03:07:59.078Z,0.00
2018-05-07T03:08:58.989Z,0.00
2018-05-07T03:09:58.916Z,0.00
2018-05-07T03:10:58.831Z,0.00
2018-05-07T03:11:58.767Z,0.00
2018-05-07T03:12:58.665Z,0.00
2018-05-07T03:13:58.588Z,0.00
2018-05-07T03:14:58.508Z,0.00
2018-05-07T03:15:58.426Z,0.00
2018-05-07T03:16:58.348Z,0.00
2018-05-07T03:17:58.267Z,0.00
2018-05-07T03:18:58.179Z,0.00
2018-05-07T03:19:58.104Z,0.00
2018-05-07T03:20:58.027Z,0.00
2018-05-07T03:21:57.938Z,5.63
2018-05-07T03:22:57.864Z,5.63
2018-05-07T03:23:57.776Z,5.63
2018-05-07T03:24:57.707Z,5.63
2018-05-07T03:25:57.618Z,5.63
2018-05-07T03:26:57.539Z,5.63
2018-05-07T03:27:57.464Z,5.63
2018-05-07T03:28:57.383Z,5.63
2018-05-07T03:29:57.306Z,5.63
2018-05-07T03:30:57.222Z,5.63
2018-05-07T03:31:57.142Z,11.25
2018-05-07T03:32:57.065Z,11.25
2018-05-07T03:33:56.979Z,11.25
2018-05-07T03:34:56.894Z,11.25
2018-05-07T03:35:56.816Z,11.25
2018-05-07T03:36:56.731Z,11.25
2018-05-07T03:37:56.656Z,11.25
2018-05-07T03:38:56.571Z,16.88
2018-05-07T03:39:56.494Z,16.88
2018-05-07T03:40:56.418Z,16.88
2018-05-07T03:41:56.332Z,16.88
2018-05-07T03:42:56.257Z,16.88
2018-05-07T03:43:56.168Z,16.88
2018-05-07T03:44:56.092Z,16.88
2018-05-07T03:45:56.006Z,22.50
2018-05-07T03:46:55.930Z,22.50
2018-05-07T03:47:55.855Z,22.50
2018-05-07T03:48:55.770Z,22.50
2018-05-07T03:49:55.694Z,22.50
2018-05-07T03:50:55.607Z,22.50
2018-05-07T03:51:55.532Z,22.50
2018-05-07T03:52:55.456Z,28.13
2018-05-07T03:53:55.367Z,28.13
2018-05-07T03:54:55.286Z,28.13
2018-05-07T03:55:55.207Z,28.13
2018-05-07T03:56:55.122Z,28.13
2018-05-07T03:57:55.058Z,28.13
2018-05-07T03:58:54.970Z,33.75
2018-05-07T03:59:54.891Z,33.75
2018-05-07T04:00:54.806Z,33.75
2018-05-07T04:01:54.718Z,33.75
2018-05-07T04:02:54.644Z,33.75
2018-05-07T04:03:54.557Z,33.75
2018-05-07T04:04:54.485Z,33.75
2018-05-07T04:05:54.398Z,39.38
2018-05-07T04:06:54.321Z,39.38
2018-05-07T04:07:54.246Z,39.38
2018-05-07T04:08:54.157Z,39.38
2018-05-07T04:09:54.082Z,39.38
2018-05-07T04:10:53.994Z,39.38
2018-05-07T04:11:53.920Z,45.00
2018-05-07T04:12:53.833Z,45.00
2018-05-07T04:13:53.758Z,45.00
2018-05-07T04:14:53.672Z,45.00
2018-05-07T04:15:53.595Z,45.00
2018-05-07T04:16:53.522Z,45.00
2018-05-07T04:17:53.439Z,50.63
2018-05-07T04:18:53.361Z,50.63
2018-05-07T04:19:53.274Z,50.63
2018-05-07T04:20:53.196Z,50.63
2018-05-07T04:21:53.110Z,56.25
2018-05-07T04:22:53.035Z,56.25
2018-05-07T04:23:52.947Z,61.88
2018-05-07T04:24:52.886Z,61.88
2018-05-07T04:25:52.799Z,61.88
2018-05-07T04:26:52.711Z,67.50
2018-05-07T04:27:52.637Z,67.50
2018-05-07T04:28:52.548Z,67.50
2018-05-07T04:29:52.486Z,67.50
2018-05-07T04:30:52.386Z,67.50
2018-05-07T04:31:52.312Z,73.13
2018-05-07T04:32:52.235Z,73.13
2018-05-07T04:33:52.147Z,73.13
2018-05-07T04:34:52.084Z,73.13
2018-05-07T04:35:51.985Z,73.13
2018-05-07T04:36:51.912Z,73.13
2018-05-07T04:37:51.826Z,73.13
2018-05-07T04:38:51.749Z,73.13
2018-05-07T04:39:51.675Z,78.75
2018-05-07T04:40:51.586Z,78.75
2018-05-07T04:41:51.515Z,78.75
2018-05-07T04:42:51.436Z,78.75
2018-05-07T04:43:51.349Z,78.75
2018-05-07T04:44:51.277Z,78.75
2018-05-07T04:45:51.186Z,78.75
2018-05-07T04:46:51.111Z,84.38
2018-05-07T04:47:51.036Z,84.38
2018-05-07T04:48:50.953Z,84.38
2018-05-07T04:49:50.875Z,84.38
2018-05-07T04:50:50.788Z,84.38
2018-05-07T04:51:50.715Z,84.38
2018-05-07T04:52:50.626Z,84.38
2018-05-07T04:53:50.548Z,84.38
2018-05-07T04:54:50.475Z,84.38
2018-05-07T04:55:50.388Z,84.38
2018-05-07T04:56:50.315Z,84.38
2018-05-07T04:57:50.228Z,84.38
2018-05-07T04:58:50.152Z,84.38
2018-05-07T04:59:50.077Z,84.38
2018-05-07T05:00:49.994Z,84.38
2018-05-07T05:01:49.915Z,84.38
2018-05-07T05:02:49.838Z,84.38
2018-05-07T05:03:49.751Z,84.38
2018-05-07T05:04:49.677Z,84.38
2018-05-07T05:05:49.602Z,84.38
2018-05-07T05:06:49.516Z,84.38
2018-05-07T05:07:49.441Z,84.38
2018-05-07T05:08:49.351Z,84.38
2018-05-07T05:09:49.275Z,84.38
2018-05-07T05:10:49.201Z,84.38
2018-05-07T05:11:49.114Z,84.38
2018-05-07T05:12:49.047Z,84.38
2018-05-07T05:13:48.966Z,84.38
2018-05-07T05:14:48.878Z,84.38
2018-05-07T05:15:48.804Z,90.00
2018-05-07T05:16:48.728Z,90.00
2018-05-07T05:17:48.641Z,90.00
2018-05-07T05:18:48.567Z,90.00
2018-05-07T05:19:48.492Z,90.00
2018-05-07T05:20:48.402Z,90.00
2018-05-07T05:21:48.329Z,90.00
2018-05-07T05:22:48.253Z,90.00
2018-05-07T05:23:48.165Z,90.00
2018-05-07T05:24:48.093Z,90.00
2018-05-07T05:25:48.017Z,90.00
2018-05-07T05:26:47.930Z,90.00
2018-05-07T05:27:47.856Z,95.63
2018-05-07T05:28:47.777Z,95.63
2018-05-07T05:29:47.703Z,95.63
2018-05-07T05:30:47.616Z,95.63
2018-05-07T05:31:47.541Z,95.63
2018-05-07T05:32:47.453Z,95.63
2018-05-07T05:33:47.379Z,95.63
2018-05-07T05:34:47.304Z,95.63
2018-05-07T05:35:47.217Z,95.63
2018-05-07T05:36:47.143Z,95.63
2018-05-07T05:37:47.069Z,95.63
2018-05-07T05:38:46.983Z,95.63
2018-05-07T05:39:46.909Z,95.63
2018-05-07T05:40:46.829Z,95.63
2018-05-07T05:41:46.755Z,101.25
2018-05-07T05:42:46.669Z,101.25
2018-05-07T05:43:46.691Z,101.25
2018-05-07T05:44:46.525Z,101.25
2018-05-07T05:45:46.433Z,101.25
2018-05-07T05:46:46.357Z,101.25
2018-05-07T05:47:46.295Z,101.25
2018-05-07T05:48:46.209Z,101.25
2018-05-07T05:49:46.128Z,101.25
2018-05-07T05:50:46.046Z,106.88
2018-05-07T05:51:45.972Z,106.88
2018-05-07T05:52:45.894Z,106.88
2018-05-07T05:53:45.805Z,106.88
2018-05-07T05:54:45.732Z,106.88
2018-05-07T05:55:45.655Z,106.88
2018-05-07T05:56:45.572Z,106.88
2018-05-07T05:57:45.496Z,106.88
2018-05-07T05:58:45.424Z,106.88
2018-05-07T05:59:45.346Z,106.88
2018-05-07T06:00:45.257Z,106.88
2018-05-07T06:01:45.182Z,106.88
2018-05-07T06:02:45.107Z,112.50
2018-05-07T06:03:45.128Z,112.50
2018-05-07T06:04:44.945Z,112.50
2018-05-07T06:05:44.871Z,112.50
2018-05-07T06:06:44.796Z,112.50
2018-05-07T06:07:44.721Z,112.50
2018-05-07T06:08:44.635Z,112.50
2018-05-07T06:09:44.561Z,112.50
2018-05-07T06:10:44.485Z,112.50
2018-05-07T06:11:44.411Z,118.13
2018-05-07T06:12:44.322Z,118.13
2018-05-07T06:13:44.246Z,118.13
2018-05-07T06:14:44.334Z,118.13
2018-05-07T06:15:44.096Z,118.13
2018-05-07T06:16:44.010Z,118.13
2018-05-07T06:17:43.936Z,118.13
2018-05-07T06:18:43.860Z,118.13
2018-05-07T06:19:43.786Z,123.75
2018-05-07T06:20:43.700Z,123.75
2018-05-07T06:21:43.624Z,123.75
2018-05-07T06:22:43.552Z,123.75
2018-05-07T06:23:43.475Z,123.75
2018-05-07T06:24:43.386Z,123.75
2018-05-07T06:25:43.315Z,123.75
2018-05-07T06:26:43.234Z,129.38
2018-05-07T06:27:43.174Z,129.38
2018-05-07T06:28:43.089Z,129.38
2018-05-07T06:29:43.009Z,129.38
2018-05-07T06:30:42.960Z,129.38
2018-05-07T06:31:42.851Z,129.38
2018-05-07T06:32:42.776Z,129.38
2018-05-07T06:33:42.699Z,129.38
2018-05-07T06:34:42.611Z,129.38
2018-05-07T06:35:42.535Z,135.00
2018-05-07T06:36:42.463Z,135.00
2018-05-07T06:37:42.385Z,135.00
2018-05-07T06:38:42.311Z,135.00
2018-05-07T06:39:42.228Z,140.63
2018-05-07T06:40:42.163Z,140.63
2018-05-07T06:41:42.076Z,140.63
2018-05-07T06:42:42.004Z,140.63
2018-05-07T06:43:41.928Z,146.25
2018-05-07T06:44:41.838Z,151.88
2018-05-07T06:45:41.827Z,151.88
2018-05-07T06:46:41.689Z,151.88
2018-05-07T06:47:41.614Z,157.50
2018-05-07T06:48:41.539Z,157.50
2018-05-07T06:49:41.464Z,157.50
2018-05-07T06:50:41.378Z,157.50
2018-05-07T06:51:41.306Z,163.13
2018-05-07T06:52:41.228Z,163.13
2018-05-07T06:53:41.153Z,168.75
2018-05-07T06:54:41.087Z,163.13
2018-05-07T06:55:41.003Z,168.75
2018-05-07T06:56:40.914Z,168.75
2018-05-07T06:57:40.851Z,174.38
2018-05-07T06:58:40.764Z,180.00
2018-05-07T06:59:40.692Z,180.00
2018-05-07T07:00:40.616Z,185.63
2018-05-07T07:01:40.541Z,185.63
2018-05-07T07:02:40.588Z,185.63
2018-05-07T07:03:40.380Z,191.25
2018-05-07T07:04:40.302Z,191.25
2018-05-07T07:05:40.227Z,196.88
2018-05-07T07:06:40.153Z,196.88
2018-05-07T07:07:40.078Z,196.88
2018-05-07T07:08:40.059Z,196.88
2018-05-07T07:09:39.931Z,202.50
2018-05-07T07:10:39.854Z,202.50
2018-05-07T07:11:39.781Z,208.13
2018-05-07T07:12:39.694Z,208.13
2018-05-07T07:13:39.616Z,213.75
2018-05-07T07:14:39.541Z,213.75
2018-05-07T07:15:39.467Z,219.38
2018-05-07T07:17:21.518Z,236.25
2018-05-07T07:18:21.442Z,286.88
2018-05-07T07:19:21.354Z,315.00
2018-05-07T07:20:21.282Z,343.13
2018-05-07T07:21:21.206Z,354.38
2018-05-07T07:22:21.147Z,360.00
2018-05-07T07:23:21.056Z,371.25
2018-05-07T07:24:20.980Z,376.88
2018-05-07T07:25:20.905Z,388.13
2018-05-07T07:26:20.833Z,399.38
2018-05-07T07:27:20.756Z,416.25
2018-05-07T07:28:20.715Z,421.88
2018-05-07T07:29:20.606Z,433.13
2018-05-07T07:30:20.532Z,438.75
2018-05-07T07:31:20.463Z,455.63
2018-05-07T07:32:20.382Z,472.50
2018-05-07T08:16:11.048Z,663.75
2018-05-07T08:17:09.972Z,658.13
2018-05-07T08:22:22.675Z,770.63
2018-05-07T08:23:22.613Z,810.00
2018-05-07T08:24:22.549Z,855.00
2018-05-07T08:25:22.488Z,945.00
2018-05-07T08:26:22.415Z,1012.50
2018-05-07T08:27:22.350Z,1102.50
2018-05-07T08:28:22.290Z,1220.63
2018-05-07T08:29:22.212Z,1378.13
2018-05-07T08:30:22.170Z,1648.13
2018-05-07T08:31:22.089Z,2036.25
2018-05-07T08:32:22.024Z,2435.63
2018-05-07T08:33:21.952Z,2677.50
2018-05-07T08:34:21.890Z,2998.13
2018-05-07T08:35:21.826Z,2970.00
2018-05-07T08:36:21.764Z,2683.13
2018-05-07T08:37:21.709Z,2711.25
2018-05-07T08:38:21.626Z,2925.00
2018-05-07T08:39:21.565Z,3166.88
2018-05-07T08:40:21.502Z,3358.13
2018-05-07T08:41:21.438Z,3138.75
2018-05-07T08:42:21.367Z,2784.38
2018-05-07T08:43:21.300Z,2154.38
2018-05-07T08:44:21.239Z,1546.88
2018-05-07T08:45:21.177Z,1023.75
2018-05-07T08:46:21.105Z,759.38
2018-05-07T08:47:21.040Z,624.38
2018-05-07T08:48:20.978Z,556.88
2018-05-07T08:49:20.915Z,523.13
2018-05-07T08:50:20.840Z,517.50
2018-05-07T08:51:20.775Z,523.13
2018-05-07T08:52:20.715Z,523.13
2018-05-07T08:53:20.652Z,523.13
2018-05-07T08:54:20.801Z,528.75
2018-05-07T08:55:20.515Z,528.75
2018-05-07T08:56:20.452Z,528.75
2018-05-07T08:57:20.392Z,528.75
2018-05-07T08:58:20.328Z,534.38
2018-05-07T08:59:20.256Z,540.00
2018-05-07T09:00:20.199Z,545.63
2018-05-07T09:01:20.130Z,551.25
2018-05-07T09:02:20.059Z,568.13
2018-05-07T09:03:19.991Z,573.75
2018-05-07T09:04:19.927Z,579.38
2018-05-07T09:05:19.868Z,585.00
2018-05-07T09:06:19.805Z,607.50
2018-05-07T09:07:19.731Z,624.38
2018-05-07T09:08:19.671Z,641.25
2018-05-07T09:09:19.605Z,652.50
2018-05-07T09:10:19.544Z,675.00
2018-05-07T09:11:19.468Z,703.13
2018-05-07T09:12:19.406Z,725.63
2018-05-07T09:13:19.341Z,736.88
2018-05-07T09:14:19.279Z,748.13
2018-05-07T09:15:19.313Z,765.00
2018-05-07T09:16:19.142Z,776.25
2018-05-07T09:17:19.081Z,787.50
2018-05-07T09:18:19.019Z,798.75
2018-05-07T09:19:18.957Z,815.63
2018-05-07T09:20:18.899Z,815.63
2018-05-07T09:21:18.830Z,838.13
2018-05-07T09:22:18.757Z,849.38
2018-05-07T09:23:18.693Z,866.25
2018-05-07T09:24:18.632Z,905.63
2018-05-07T09:25:18.570Z,961.88
2018-05-07T09:26:18.512Z,1018.13
2018-05-07T09:27:18.447Z,1068.75
2018-05-07T09:28:18.382Z,1096.88
2018-05-07T09:29:18.318Z,1136.25
2018-05-07T09:30:18.244Z,1248.75
2018-05-07T09:31:18.181Z,1507.50
2018-05-07T09:32:18.119Z,1788.75
2018-05-07T09:33:18.059Z,1861.88
2018-05-07T09:34:17.996Z,1906.88
2018-05-07T09:35:17.933Z,2013.75
2018-05-07T10:15:54.910Z,303.75
2018-05-07T10:39:22.876Z,686.25
2018-05-07T10:57:31.677Z,2041.88
2018-05-07T10:59:55.864Z,4044.38
2018-05-07T11:00:55.802Z,3751.88
2018-05-07T11:01:55.739Z,3555.00
2018-05-07T11:02:55.680Z,3729.38
2018-05-07T11:03:55.620Z,3661.88
2018-05-07T11:04:55.541Z,3560.63
2018-05-07T11:05:55.480Z,3768.75
2018-05-07T11:08:19.679Z,4185.00
2018-05-07T11:11:26.284Z,4066.88
2018-05-07T11:12:26.017Z,3858.75
2018-05-07T11:13:25.955Z,3982.50
2018-05-07T11:14:25.896Z,3819.38
2018-05-07T11:15:26.182Z,3718.13
2018-05-07T11:16:25.769Z,4100.63
2018-05-07T11:17:25.707Z,4218.75
2018-05-07T11:18:25.641Z,4038.75
2018-05-07T11:20:49.841Z,4218.75
2018-05-07T11:21:49.980Z,3993.75
2018-05-07T11:24:13.982Z,3695.63
2018-05-07T11:25:13.917Z,4016.25
2018-05-07T11:27:40.742Z,3628.13
2018-05-07T11:28:38.055Z,4033.13
2018-05-07T11:29:38.007Z,4100.63
2018-05-07T11:30:37.933Z,4196.25
2018-05-07T11:31:37.870Z,4179.38
2018-05-07T11:32:37.808Z,3960.00
2018-05-07T11:33:37.745Z,3875.63
2018-05-07T11:34:37.682Z,3886.88
2018-05-07T11:35:37.618Z,3825.00
2018-05-07T11:36:37.557Z,4252.50
2018-05-07T11:37:37.507Z,4415.63
2018-05-07T11:38:37.438Z,4376.25
2018-05-07T11:39:37.375Z,4162.50
2018-05-07T11:40:37.309Z,4151.25
2018-05-07T11:41:37.248Z,4286.25
2018-05-07T11:42:37.197Z,4128.75
2018-05-07T11:43:37.134Z,4207.50
2018-05-07T11:44:37.072Z,4258.13
2018-05-07T11:45:37.010Z,4246.88
2018-05-07T11:46:36.944Z,4185.00
2018-05-07T11:47:36.988Z,4095.00
2018-05-07T11:48:36.832Z,4196.25
2018-05-07T11:49:36.758Z,4066.88
2018-05-07T11:50:36.699Z,3858.75
2018-05-07T11:51:36.636Z,4117.50
2018-05-07T11:52:36.572Z,4353.75
2018-05-07T11:53:36.516Z,4303.13
2018-05-07T11:54:36.454Z,4320.00
2018-05-07T11:55:36.384Z,4415.63
2018-05-07T11:56:36.322Z,4421.25
2018-05-07T11:57:36.259Z,4331.25
2018-05-07T11:58:36.196Z,4280.63
2018-05-07T11:59:36.135Z,4376.25
2018-05-07T12:00:36.071Z,4376.25
2018-05-07T12:01:36.009Z,4252.50
2018-05-07T12:02:36.038Z,4213.13
2018-05-07T12:03:35.887Z,4258.13
2018-05-07T12:04:35.824Z,4140.00
2018-05-07T12:05:35.761Z,4010.63
2018-05-07T12:06:35.697Z,4072.50
2018-05-07T12:07:35.636Z,4196.25
2018-05-07T12:08:35.585Z,4207.50
2018-05-07T12:09:35.518Z,4156.88
2018-05-07T12:10:35.450Z,4275.00
2018-05-07T12:11:35.387Z,4235.63
2018-05-07T12:12:35.324Z,3864.38
2018-05-07T12:13:35.262Z,3853.13
2018-05-07T12:14:35.200Z,4196.25
2018-05-07T12:15:35.138Z,4426.88
2018-05-07T12:16:35.075Z,4336.88
2018-05-07T12:17:35.014Z,4275.00
2018-05-07T12:18:34.949Z,4151.25
2018-05-07T12:19:34.887Z,4156.88
2018-05-07T12:20:34.824Z,4297.50
2018-05-07T12:21:34.761Z,4286.25
2018-05-07T12:22:34.700Z,4016.25
2018-05-07T12:23:34.639Z,3757.50
2018-05-07T12:24:34.576Z,3470.63
2018-05-07T12:25:34.514Z,3757.50
2018-05-07T12:26:34.451Z,4111.88
2018-05-07T12:27:34.390Z,4224.38
2018-05-07T12:28:34.324Z,4314.38
2018-05-07T12:29:34.263Z,4320.00
2018-05-07T12:30:34.206Z,4224.38
2018-05-07T12:31:34.248Z,4111.88
2018-05-07T12:32:34.077Z,3954.38
2018-05-07T12:33:34.016Z,3886.88
2018-05-07T12:34:33.952Z,3971.25
2018-05-07T12:35:33.892Z,3999.38
2018-05-07T12:36:33.826Z,3915.00
2018-05-07T12:37:33.792Z,3976.88
2018-05-07T12:38:33.716Z,4095.00
2018-05-07T12:39:33.654Z,3892.50
2018-05-07T12:40:33.593Z,3611.25
2018-05-07T12:41:33.528Z,3808.13
2018-05-07T12:42:33.464Z,3369.38
2018-05-07T12:43:33.404Z,3166.88
2018-05-07T12:44:33.340Z,3712.50
2018-05-07T12:45:33.276Z,4050.00
2018-05-07T12:46:33.215Z,4106.25
2018-05-07T12:47:33.152Z,4106.25
2018-05-07T12:48:33.090Z,4123.13
2018-05-07T12:49:33.028Z,4201.88
2018-05-07T12:50:32.967Z,4140.00
2018-05-07T12:51:32.905Z,4010.63
2018-05-07T12:52:32.843Z,3892.50
2018-05-07T12:53:32.779Z,3768.75
2018-05-07T12:54:32.716Z,3937.50
2018-05-07T12:55:32.666Z,3886.88
2018-05-07T12:56:32.594Z,3723.75
2018-05-07T12:57:32.528Z,3684.38
2018-05-07T12:58:32.468Z,3875.63
2018-05-07T12:59:32.418Z,3909.38
2018-05-07T13:00:32.343Z,3988.13
2018-05-07T13:01:32.294Z,3735.00
2018-05-07T13:02:32.218Z,3386.25
2018-05-07T13:03:32.156Z,3476.25
2018-05-07T13:04:32.095Z,3673.13
2018-05-07T13:05:32.031Z,3673.13
2018-05-07T13:06:31.967Z,3757.50
2018-05-07T13:07:31.906Z,3954.38
2018-05-07T13:08:31.842Z,3841.88
2018-05-07T13:09:31.780Z,3886.88
2018-05-07T13:10:31.731Z,3667.50
2018-05-07T13:11:31.758Z,3780.00
2018-05-07T13:12:31.607Z,3864.38
2018-05-07T13:13:31.545Z,3673.13
2018-05-07T13:14:31.480Z,3712.50
2018-05-07T13:15:31.418Z,3706.88
2018-05-07T13:16:31.356Z,3751.88
2018-05-07T13:17:31.298Z,3808.13
2018-05-07T13:18:31.230Z,3673.13
2018-05-07T13:19:31.168Z,3521.25
2018-05-07T13:20:31.105Z,3633.75
2018-05-07T13:21:31.044Z,3543.75
2018-05-07T13:22:30.983Z,3498.75
2018-05-07T13:23:30.921Z,3431.25
2018-05-07T13:24:30.872Z,3301.88
2018-05-07T13:25:30.800Z,3436.88
2018-05-07T13:26:30.733Z,3538.13
2018-05-07T13:27:30.669Z,3645.00
2018-05-07T13:28:30.607Z,3481.88
2018-05-07T13:29:30.544Z,2598.75
2018-05-07T13:30:30.483Z,916.88
2018-05-07T13:31:30.423Z,343.13
2018-05-07T13:32:30.372Z,275.63
2018-05-07T13:33:30.300Z,270.00
2018-05-07T13:34:30.234Z,264.38
2018-05-07T13:35:30.172Z,258.75
2018-05-07T13:36:30.115Z,253.13
2018-05-07T13:37:30.036Z,247.50
2018-05-07T13:38:29.971Z,241.88
2018-05-07T13:39:29.907Z,236.25
2018-05-07T13:40:29.846Z,230.63
2018-05-07T13:41:29.782Z,230.63
2018-05-07T13:42:29.722Z,230.63
2018-05-07T13:43:29.647Z,225.00
2018-05-07T13:44:29.585Z,225.00
2018-05-07T13:45:29.522Z,219.38
2018-05-07T13:46:29.457Z,219.38
2018-05-07T13:47:29.383Z,219.38
2018-05-07T13:48:29.322Z,213.75
2018-05-07T13:49:29.247Z,219.38
2018-05-07T13:50:29.183Z,219.38
2018-05-07T13:51:29.121Z,219.38
2018-05-07T13:52:29.047Z,219.38
2018-05-07T13:53:28.986Z,219.38
2018-05-07T13:54:28.910Z,219.38
2018-05-07T13:55:28.849Z,213.75
2018-05-07T13:56:28.775Z,213.75
2018-05-07T13:57:28.711Z,213.75
2018-05-07T13:58:28.633Z,213.75
2018-05-07T13:59:28.573Z,208.13
2018-05-07T14:00:28.498Z,208.13
2018-05-07T14:01:28.439Z,208.13
2018-05-07T14:02:28.362Z,208.13
2018-05-07T14:03:28.300Z,208.13
2018-05-07T14:04:28.225Z,202.50
2018-05-07T14:05:28.162Z,202.50
2018-05-07T14:06:28.099Z,196.88
2018-05-07T14:07:28.012Z,196.88
2018-05-07T14:08:27.972Z,196.88
2018-05-07T14:09:27.875Z,196.88
2018-05-07T14:10:27.799Z,196.88
2018-05-07T14:11:27.736Z,196.88
2018-05-07T14:12:27.661Z,196.88
2018-05-07T14:13:27.585Z,196.88
2018-05-07T14:14:27.528Z,196.88
2018-05-07T14:15:27.452Z,191.25
2018-05-07T14:16:27.376Z,191.25
2018-05-07T14:17:27.313Z,196.88
2018-05-07T14:18:27.256Z,196.88
2018-05-07T14:19:27.161Z,196.88
2018-05-07T14:20:27.104Z,191.25
2018-05-07T14:21:27.026Z,191.25
2018-05-07T14:22:26.950Z,191.25
2018-05-07T14:23:26.887Z,191.25
2018-05-07T14:24:26.812Z,191.25
2018-05-07T14:25:26.738Z,191.25
2018-05-07T14:26:26.679Z,191.25
2018-05-07T14:27:26.602Z,191.25
2018-05-07T14:28:26.528Z,191.25
2018-05-07T14:29:26.455Z,191.25
2018-05-07T14:30:26.387Z,185.63
2018-05-07T14:31:26.315Z,185.63
2018-05-07T14:32:26.239Z,185.63
2018-05-07T14:33:26.258Z,180.00
2018-05-07T14:34:26.103Z,180.00
2018-05-07T14:35:26.041Z,180.00
2018-05-07T14:36:25.982Z,180.00
2018-05-07T14:37:25.891Z,180.00
2018-05-07T14:38:25.813Z,174.38
2018-05-07T14:39:25.752Z,174.38
2018-05-07T14:40:25.678Z,174.38
2018-05-07T14:41:25.603Z,174.38
2018-05-07T14:42:25.541Z,174.38
2018-05-07T14:43:25.467Z,174.38
2018-05-07T14:44:25.391Z,174.38
2018-05-07T14:45:25.319Z,174.38
2018-05-07T14:46:25.252Z,168.75
2018-05-07T14:47:25.177Z,168.75
2018-05-07T14:48:25.103Z,168.75
2018-05-07T14:49:25.028Z,168.75
2018-05-07T14:50:24.969Z,168.75
2018-05-07T14:51:24.892Z,168.75
2018-05-07T14:52:24.829Z,163.13
2018-05-07T14:53:24.744Z,163.13
2018-05-07T14:54:24.683Z,163.13
2018-05-07T14:55:24.606Z,163.13